Time;durP1;ratioP1;P1;durP2;ratioP2;P2;SDS_P1;SDS_P2;PMS_P1;PMS_P2;Temp;Humidity;BMP_temperature;BMP_pressure;BME280_temperature;BME280_humidity;BME280_pressure;Samples;Min_cycle;Max_cycle;Signal;HPM_P1;HPM_P2
2022/05/21 00:00:22;;;;;;;7.60;7.10;;;17.10;99.90;;;;;;5054283;28;20438;-64
2022/05/21 00:02:49;;;;;;;7.90;7.20;;;17.10;99.90;;;;;;5052882;28;20535;-65
2022/05/21 00:05:17;;;;;;;8.10;7.40;;;17.10;99.90;;;;;;5054273;28;20415;-64
2022/05/21 00:07:43;;;;;;;9.77;7.90;;;17.10;99.90;;;;;;5054719;28;20791;-64
2022/05/21 00:10:12;;;;;;;8.20;7.00;;;17.20;99.90;;;;;;5053962;28;20456;-65
2022/05/21 00:12:38;;;;;;;7.80;7.10;;;17.10;99.90;;;;;;5054109;28;20424;-64
2022/05/21 00:15:04;;;;;;;8.27;7.67;;;17.20;99.90;;;;;;5052795;28;20440;-64
2022/05/21 00:17:30;;;;;;;8.30;7.60;;;17.10;99.90;;;;;;5053772;28;20436;-64
2022/05/21 00:19:56;;;;;;;8.70;7.80;;;17.10;99.90;;;;;;5052592;28;20428;-64
2022/05/21 00:22:21;;;;;;;10.27;9.30;;;17.10;99.90;;;;;;5053930;28;20178;-64
2022/05/21 00:24:47;;;;;;;10.00;9.13;;;17.10;99.90;;;;;;5053669;28;20626;-64
2022/05/21 00:27:13;;;;;;;10.07;9.20;;;17.10;99.90;;;;;;5053792;28;20261;-65
2022/05/21 00:29:39;;;;;;;10.07;9.27;;;17.10;99.90;;;;;;5053620;28;20460;-65
2022/05/21 00:32:05;;;;;;;9.83;8.97;;;17.10;99.90;;;;;;5053709;28;20173;-65
2022/05/21 00:34:31;;;;;;;9.50;8.70;;;17.10;99.90;;;;;;5054226;28;20272;-65
2022/05/21 00:36:57;;;;;;;9.77;9.03;;;17.10;99.90;;;;;;5054163;28;20416;-64
2022/05/21 00:39:23;;;;;;;12.47;11.47;;;17.10;99.90;;;;;;5053519;28;20431;-64
2022/05/21 00:41:50;;;;;;;11.60;10.43;;;17.10;99.90;;;;;;5053005;28;20638;-64
2022/05/21 00:44:15;;;;;;;11.63;9.83;;;17.00;99.90;;;;;;5053500;28;20169;-65
2022/05/21 00:46:43;;;;;;;11.70;10.57;;;17.10;99.90;;;;;;5053991;28;20423;-64
2022/05/21 00:49:14;;;;;;;10.73;9.83;;;17.00;99.90;;;;;;5053414;28;20221;-65
2022/05/21 00:51:43;;;;;;;10.80;9.90;;;17.00;99.90;;;;;;5054286;28;20400;-65
2022/05/21 00:54:10;;;;;;;11.40;10.40;;;17.10;99.90;;;;;;5053214;28;20535;-65
2022/05/21 00:56:42;;;;;;;10.60;9.67;;;17.10;99.90;;;;;;5053764;28;20408;-65
2022/05/21 01:01:56;;;;;;;12.20;11.10;;;17.10;99.90;;;;;;5052380;28;20424;-64
2022/05/21 01:04:24;;;;;;;12.87;11.30;;;17.10;99.90;;;;;;5053042;28;21147;-65
2022/05/21 01:06:50;;;;;;;12.77;11.67;;;17.10;99.90;;;;;;5052725;28;20466;-65
2022/05/21 01:09:16;;;;;;;15.20;10.70;;;17.10;99.90;;;;;;5052692;28;20985;-65
2022/05/21 01:11:41;;;;;;;12.10;10.90;;;17.20;99.90;;;;;;5053661;28;20416;-65
2022/05/21 01:14:10;;;;;;;12.90;11.70;;;17.00;99.90;;;;;;5052070;28;20182;-65
2022/05/21 01:16:36;;;;;;;11.40;10.40;;;17.00;99.90;;;;;;5053504;28;20170;-64
2022/05/21 01:19:11;;;;;;;12.23;10.93;;;17.00;99.90;;;;;;5052350;28;20855;-65
2022/05/21 01:21:37;;;;;;;11.40;10.17;;;17.00;99.90;;;;;;5053065;28;20516;-65
2022/05/21 01:24:07;;;;;;;12.50;11.07;;;17.00;99.90;;;;;;5053311;28;20416;-64
2022/05/21 01:26:34;;;;;;;13.40;11.70;;;17.00;99.90;;;;;;5053268;28;20444;-65
2022/05/21 01:29:03;;;;;;;11.20;10.30;;;17.00;99.90;;;;;;5051733;28;20983;-64
2022/05/21 01:31:32;;;;;;;11.30;10.03;;;16.90;99.90;;;;;;5051466;28;20432;-65
2022/05/21 01:33:59;;;;;;;10.73;9.73;;;16.90;99.90;;;;;;5053141;28;20440;-64
2022/05/21 01:36:25;;;;;;;11.03;10.03;;;16.80;99.90;;;;;;5051213;28;20837;-65
2022/05/21 01:38:51;;;;;;;12.27;11.03;;;16.80;99.90;;;;;;5053035;28;20420;-64
2022/05/21 01:41:16;;;;;;;11.43;10.13;;;16.90;99.90;;;;;;5052408;28;20933;-64
2022/05/21 01:46:27;;;;;;;10.13;9.23;;;16.80;99.90;;;;;;5050876;28;21644;-65
2022/05/21 01:48:52;;;;;;;10.33;9.43;;;16.80;99.90;;;;;;5051668;28;20884;-65
2022/05/21 01:51:19;;;;;;;10.93;9.47;;;16.80;99.90;;;;;;5052268;28;20504;-64
2022/05/21 01:53:45;;;;;;;11.07;9.93;;;16.80;99.90;;;;;;5052864;28;20211;-64
2022/05/21 01:56:13;;;;;;;10.23;9.33;;;16.80;99.90;;;;;;5050884;28;20911;-65
2022/05/21 01:58:39;;;;;;;10.57;9.70;;;16.80;99.90;;;;;;5052742;28;20415;-64
2022/05/21 02:01:06;;;;;;;10.03;9.13;;;16.70;99.90;;;;;;5051881;28;20435;-64
2022/05/21 02:03:32;;;;;;;9.77;9.00;;;16.80;99.90;;;;;;5052710;28;20424;-65
2022/05/21 02:05:58;;;;;;;10.20;8.80;;;16.70;99.90;;;;;;5051506;28;20947;-64
2022/05/21 02:08:24;;;;;;;9.80;8.80;;;16.70;99.90;;;;;;5051743;28;20513;-65
2022/05/21 02:10:51;;;;;;;9.43;8.30;;;16.70;99.90;;;;;;5051498;28;20227;-65
2022/05/21 02:13:24;;;;;;;9.47;8.27;;;16.60;99.90;;;;;;5032103;28;20170;-64
2022/05/21 02:15:50;;;;;;;11.03;8.37;;;16.50;99.90;;;;;;5032656;28;20413;-64
2022/05/21 02:18:17;;;;;;;8.53;7.63;;;16.40;99.90;;;;;;5031941;28;20511;-65
2022/05/21 02:20:43;;;;;;;8.40;7.60;;;16.40;99.90;;;;;;5050517;28;20675;-65
2022/05/21 02:23:10;;;;;;;8.60;7.80;;;16.50;99.90;;;;;;5051906;28;20816;-65
2022/05/21 02:25:36;;;;;;;9.23;7.83;;;16.50;99.90;;;;;;5051164;28;20927;-64
2022/05/21 02:28:02;;;;;;;9.17;7.37;;;16.50;99.90;;;;;;5052426;28;20425;-64
2022/05/21 02:30:28;;;;;;;7.17;6.50;;;16.50;99.90;;;;;;5051753;28;20702;-64
2022/05/21 02:32:54;;;;;;;7.20;6.60;;;16.50;99.90;;;;;;5052500;28;20403;-64
2022/05/21 02:35:19;;;;;;;6.87;6.30;;;16.60;99.90;;;;;;5051525;28;20228;-65
2022/05/21 02:40:30;;;;;;;7.20;6.60;;;16.60;99.90;;;;;;5050688;28;20238;-64
2022/05/21 02:42:56;;;;;;;8.53;7.20;;;16.50;99.90;;;;;;5052949;28;20470;-64
2022/05/21 02:45:25;;;;;;;7.57;6.90;;;16.50;99.90;;;;;;5055744;28;20430;-65
2022/05/21 02:47:52;;;;;;;8.37;6.80;;;16.50;99.90;;;;;;5056052;28;20172;-65
2022/05/21 02:50:33;;;;;;;7.53;6.93;;;16.60;99.90;;;;;;5055559;28;20798;-65
2022/05/21 02:53:08;;;;;;;7.67;6.40;;;16.50;99.90;;;;;;5056209;28;20408;-64
2022/05/21 02:55:35;;;;;;;7.80;7.20;;;16.60;99.90;;;;;;5055169;28;20513;-65
2022/05/21 02:58:00;;;;;;;6.73;6.20;;;16.60;99.90;;;;;;5056131;28;20823;-65
2022/05/21 03:00:29;;;;;;;8.20;7.50;;;16.60;99.90;;;;;;5054711;28;20428;-64
2022/05/21 03:02:56;;;;;;;7.60;6.90;;;16.70;99.90;;;;;;5055267;28;20185;-64
2022/05/21 03:05:22;;;;;;;7.63;6.93;;;16.60;99.90;;;;;;5055573;28;20435;-64
2022/05/21 03:07:50;;;;;;;7.07;6.33;;;16.60;99.90;;;;;;5056230;28;20408;-64
2022/05/21 03:10:24;;;;;;;8.57;7.77;;;16.70;99.90;;;;;;5054916;28;20520;-65
2022/05/21 03:12:59;;;;;;;10.97;7.17;;;16.70;99.90;;;;;;5055939;28;20472;-64
2022/05/21 03:15:30;;;;;;;7.10;6.50;;;16.70;99.90;;;;;;5055233;28;20411;-64
2022/05/21 03:17:56;;;;;;;8.93;7.63;;;16.60;99.90;;;;;;5055803;28;20511;-64
2022/05/21 03:20:22;;;;;;;7.53;6.83;;;16.60;99.90;;;;;;5054081;28;20555;-64
2022/05/21 03:22:48;;;;;;;7.67;7.07;;;16.50;99.90;;;;;;5055572;28;20438;-65
2022/05/21 03:25:15;;;;;;;8.90;8.20;;;16.60;99.90;;;;;;5055253;28;20419;-64
2022/05/21 03:27:41;;;;;;;11.23;7.87;;;16.50;99.90;;;;;;5055491;28;20419;-64
2022/05/21 03:30:10;;;;;;;9.10;8.20;;;16.40;99.90;;;;;;5055417;28;20458;-64
2022/05/21 03:32:36;;;;;;;8.30;7.50;;;16.20;99.90;;;;;;5055321;28;20418;-64
2022/05/21 03:35:03;;;;;;;10.73;7.97;;;16.20;99.90;;;;;;5055371;28;20416;-64
2022/05/21 03:37:28;;;;;;;7.93;7.13;;;16.10;99.90;;;;;;5036873;28;20495;-64
2022/05/21 03:39:54;;;;;;;9.67;8.67;;;16.20;99.90;;;;;;5055276;28;20420;-64
2022/05/21 03:42:20;;;;;;;10.60;7.53;;;16.20;99.90;;;;;;5053311;28;20184;-64
2022/05/21 03:44:46;;;;;;;10.73;9.47;;;16.20;99.90;;;;;;5054245;28;20182;-64
2022/05/21 03:47:13;;;;;;;9.87;8.90;;;16.30;99.90;;;;;;5054906;28;20408;-68
2022/05/21 03:49:39;;;;;;;13.60;8.00;;;16.30;99.90;;;;;;5054747;28;20524;-65
2022/05/21 03:52:06;;;;;;;9.37;8.43;;;16.30;99.90;;;;;;5054813;28;20787;-64
2022/05/21 03:54:32;;;;;;;9.00;8.17;;;16.10;99.90;;;;;;5054133;28;20426;-64
2022/05/21 03:56:58;;;;;;;12.40;11.40;;;16.20;99.90;;;;;;5055033;28;20908;-65
2022/05/21 03:59:24;;;;;;;10.43;9.53;;;16.10;99.90;;;;;;5054394;28;20523;-64
2022/05/21 04:01:50;;;;;;;8.27;7.47;;;16.10;99.90;;;;;;5055000;28;20829;-64
2022/05/21 04:04:16;;;;;;;10.43;8.57;;;16.10;99.90;;;;;;5054528;28;20181;-65
2022/05/21 04:06:41;;;;;;;10.57;9.20;;;16.20;99.90;;;;;;5052848;28;20215;-64
2022/05/21 04:09:07;;;;;;;9.47;8.50;;;16.10;99.90;;;;;;5054682;28;20213;-64
2022/05/21 04:11:33;;;;;;;8.83;8.13;;;16.10;99.90;;;;;;5054125;28;20179;-64
2022/05/21 04:13:58;;;;;;;11.10;8.50;;;16.10;99.90;;;;;;5054637;28;20176;-64
2022/05/21 04:16:24;;;;;;;9.67;8.77;;;16.10;99.90;;;;;;5053814;28;20169;-64
2022/05/21 04:18:50;;;;;;;13.00;11.00;;;16.20;99.90;;;;;;5051883;28;20195;-64
2022/05/21 04:21:15;;;;;;;10.20;9.20;;;16.10;99.90;;;;;;5053893;28;20319;-65
2022/05/21 04:23:41;;;;;;;10.60;9.60;;;16.10;99.90;;;;;;5054592;28;20233;-64
2022/05/21 04:26:07;;;;;;;13.80;8.90;;;16.00;99.90;;;;;;5036776;28;20181;-64
2022/05/21 04:28:34;;;;;;;13.03;10.30;;;16.00;99.90;;;;;;5053734;28;20176;-65
2022/05/21 04:30:59;;;;;;;11.50;10.40;;;16.10;99.90;;;;;;5053673;28;20188;-65
2022/05/21 04:33:25;;;;;;;11.87;10.20;;;16.00;99.90;;;;;;5052345;28;20428;-65
2022/05/21 04:38:35;;;;;;;10.43;8.43;;;16.10;99.90;;;;;;5052995;28;20536;-64
2022/05/21 04:41:01;;;;;;;9.67;8.80;;;16.10;99.90;;;;;;5054195;28;20522;-64
2022/05/21 04:43:27;;;;;;;12.97;8.87;;;16.20;99.90;;;;;;5053549;28;20427;-64
2022/05/21 04:45:57;;;;;;;9.77;8.80;;;16.20;99.90;;;;;;5054376;28;20181;-64
2022/05/21 04:48:23;;;;;;;11.77;8.80;;;16.20;99.90;;;;;;5052776;28;20353;-64
2022/05/21 04:50:49;;;;;;;12.23;9.40;;;16.20;99.90;;;;;;5053915;28;21003;-64
2022/05/21 04:53:14;;;;;;;8.87;7.97;;;16.20;99.90;;;;;;5053954;28;20412;-64
2022/05/21 04:55:41;;;;;;;9.63;8.70;;;16.30;99.90;;;;;;5052384;28;20655;-64
2022/05/21 04:58:06;;;;;;;11.60;9.47;;;16.20;99.90;;;;;;5053960;28;20199;-64
2022/05/21 05:00:33;;;;;;;9.27;8.37;;;16.10;99.90;;;;;;5053177;28;20880;-64
2022/05/21 05:02:58;;;;;;;9.77;7.83;;;16.10;99.90;;;;;;5053812;28;20548;-64
2022/05/21 05:05:24;;;;;;;11.07;10.00;;;16.10;99.90;;;;;;5051748;28;20439;-64
2022/05/21 05:07:50;;;;;;;8.47;7.73;;;16.20;99.90;;;;;;5052347;28;20181;-65
2022/05/21 05:10:16;;;;;;;9.27;8.07;;;16.20;99.90;;;;;;5053480;28;20201;-64
2022/05/21 05:12:42;;;;;;;9.60;8.67;;;16.20;99.90;;;;;;5052506;28;20435;-64
2022/05/21 05:15:08;;;;;;;11.73;10.50;;;16.30;99.90;;;;;;5053505;28;20484;-65
2022/05/21 05:17:34;;;;;;;8.10;7.40;;;16.30;99.90;;;;;;5051727;28;20549;-64
2022/05/21 05:20:01;;;;;;;9.00;8.20;;;16.30;99.90;;;;;;5053322;28;20427;-65
2022/05/21 05:22:27;;;;;;;10.43;9.00;;;16.30;99.90;;;;;;5052759;28;20172;-64
2022/05/21 05:24:52;;;;;;;9.40;8.50;;;16.40;99.90;;;;;;5052527;28;20471;-64
2022/05/21 05:27:18;;;;;;;9.53;7.80;;;16.40;99.90;;;;;;5052342;28;20450;-68
2022/05/21 05:29:44;;;;;;;8.33;7.63;;;16.40;99.90;;;;;;5052418;28;20215;-64
2022/05/21 05:32:10;;;;;;;8.80;8.10;;;16.40;99.90;;;;;;5050838;28;20441;-65
2022/05/21 05:34:36;;;;;;;13.13;8.60;;;16.40;99.90;;;;;;5052497;28;20181;-65
2022/05/21 05:37:03;;;;;;;8.57;7.67;;;16.40;99.90;;;;;;5052050;28;20443;-65
2022/05/21 05:39:30;;;;;;;8.53;7.63;;;16.40;99.90;;;;;;5052287;28;20420;-65
2022/05/21 05:41:57;;;;;;;10.57;7.80;;;16.40;99.90;;;;;;5051269;28;20422;-64
2022/05/21 05:44:23;;;;;;;10.40;9.40;;;16.40;99.90;;;;;;5051847;28;20431;-68
2022/05/21 05:46:49;;;;;;;10.87;8.30;;;16.30;99.90;;;;;;5052643;28;20433;-64
2022/05/21 05:49:15;;;;;;;10.53;7.83;;;16.40;99.90;;;;;;5050739;28;20483;-64
2022/05/21 05:51:40;;;;;;;9.23;7.90;;;16.40;99.90;;;;;;5049751;28;20185;-64
2022/05/21 05:54:06;;;;;;;8.73;7.67;;;16.30;99.90;;;;;;5052556;28;20173;-65
2022/05/21 05:56:32;;;;;;;10.50;9.40;;;16.40;99.90;;;;;;5049890;28;20182;-65
2022/05/21 06:01:43;;;;;;;26.03;9.50;;;16.50;99.90;;;;;;5050353;28;20182;-64
2022/05/21 06:04:09;;;;;;;9.70;8.47;;;16.60;99.90;;;;;;5051352;28;20493;-64
2022/05/21 06:06:35;;;;;;;8.67;7.80;;;16.60;99.90;;;;;;5051550;28;20426;-65
2022/05/21 06:09:00;;;;;;;8.50;7.67;;;16.50;99.90;;;;;;5050924;28;20479;-64
2022/05/21 06:11:26;;;;;;;8.67;7.00;;;16.50;99.90;;;;;;5048903;28;20184;-65
2022/05/21 06:13:52;;;;;;;8.20;6.63;;;16.60;99.90;;;;;;5045753;28;20236;-64
2022/05/21 06:16:18;;;;;;;9.50;8.37;;;16.60;99.90;;;;;;5032234;28;20291;-64
2022/05/21 06:18:43;;;;;;;8.83;7.93;;;16.70;99.90;;;;;;5042090;28;20299;-64
2022/05/21 06:21:09;;;;;;;11.57;7.87;;;16.70;99.90;;;;;;5052746;28;20282;-65
2022/05/21 06:23:35;;;;;;;9.80;7.17;;;16.70;99.90;;;;;;5064317;28;20431;-64
2022/05/21 06:26:02;;;;;;;8.57;7.87;;;16.70;99.90;;;;;;5063365;28;20420;-64
2022/05/21 06:28:28;;;;;;;9.10;8.07;;;16.80;99.90;;;;;;5051609;28;20424;-64
2022/05/21 06:30:54;;;;;;;8.20;7.27;;;16.80;99.90;;;;;;5052576;28;20521;-68
2022/05/21 06:33:27;;;;;;;10.43;9.70;;;16.80;99.90;;;;;;5035966;28;20511;-67
2022/05/21 06:36:14;;;;;;;9.70;8.70;;;17.10;99.90;;;;;;5051626;28;20409;-67
2022/05/21 06:38:41;;;;;;;8.97;7.97;;;17.30;99.90;;;;;;5051714;28;20448;-68
2022/05/21 06:41:07;;;;;;;11.37;10.20;;;17.50;99.90;;;;;;5050342;28;20454;-67
2022/05/21 06:43:34;;;;;;;8.80;7.10;;;17.90;99.90;;;;;;5056977;28;20462;-68
2022/05/21 06:45:59;;;;;;;9.37;7.47;;;18.00;99.90;;;;;;5052512;28;20411;-67
2022/05/21 06:48:26;;;;;;;10.87;6.93;;;18.20;99.90;;;;;;5051460;28;20408;-68
2022/05/21 06:50:52;;;;;;;9.53;7.90;;;18.20;99.90;;;;;;5051025;28;20241;-67
2022/05/21 06:53:18;;;;;;;10.17;7.80;;;18.20;99.90;;;;;;5050700;28;20760;-67
2022/05/21 06:55:43;;;;;;;9.13;7.77;;;18.20;99.90;;;;;;5049696;28;20401;-67
2022/05/21 06:58:10;;;;;;;14.93;13.63;;;18.10;98.30;;;;;;5052333;28;20560;-67
2022/05/21 07:00:36;;;;;;;11.07;9.97;;;18.10;99.90;;;;;;5056775;28;20219;-68
2022/05/21 07:03:02;;;;;;;23.93;18.13;;;18.20;99.90;;;;;;5052202;28;20415;-67
2022/05/21 07:08:24;;;;;;;9.20;8.10;;;18.50;99.90;;;;;;5052219;28;20450;-67
2022/05/21 07:10:51;;;;;;;12.83;11.53;;;18.50;99.70;;;;;;5052053;28;20458;-69
2022/05/21 07:13:18;;;;;;;23.57;18.83;;;18.50;99.90;;;;;;5054728;28;20420;-67
2022/05/21 07:15:47;;;;;;;26.63;21.97;;;18.50;99.90;;;;;;5051180;28;20423;-68
2022/05/21 07:18:16;;;;;;;27.13;20.60;;;18.40;99.90;;;;;;5051572;28;20424;-68
2022/05/21 07:20:42;;;;;;;9.40;8.50;;;18.30;99.90;;;;;;5050760;28;20470;-68
2022/05/21 07:23:08;;;;;;;11.43;10.20;;;18.30;99.90;;;;;;5051767;28;20518;-67
2022/05/21 07:25:33;;;;;;;11.33;9.63;;;18.40;99.90;;;;;;5050993;28;20174;-68
2022/05/21 07:28:00;;;;;;;10.23;8.93;;;18.50;99.90;;;;;;5067691;28;20184;-68
2022/05/21 07:30:27;;;;;;;11.77;9.30;;;18.50;99.30;;;;;;5062440;28;20213;-74
2022/05/21 07:32:55;;;;;;;12.27;11.03;;;18.40;98.70;;;;;;5055607;28;20474;-68
2022/05/21 07:35:22;;;;;;;10.20;8.90;;;18.30;99.70;;;;;;5053424;28;20821;-68
2022/05/21 07:37:48;;;;;;;12.97;10.63;;;18.20;98.20;;;;;;5054349;28;20412;-68
2022/05/21 07:40:15;;;;;;;11.20;8.10;;;18.30;99.90;;;;;;5047420;28;20529;-68
2022/05/21 07:42:41;;;;;;;11.33;8.80;;;18.20;99.20;;;;;;5059870;28;20441;-69
2022/05/21 07:45:09;;;;;;;12.97;8.77;;;18.30;99.20;;;;;;5059528;28;20526;-70
2022/05/21 07:47:35;;;;;;;8.13;7.33;;;18.30;99.10;;;;;;5053522;28;20177;-69
2022/05/21 07:50:01;;;;;;;8.97;7.73;;;18.30;98.40;;;;;;5054132;28;21001;-69
2022/05/21 07:52:29;;;;;;;8.53;7.50;;;18.30;99.70;;;;;;5049587;28;20209;-74
2022/05/21 07:54:56;;;;;;;9.27;8.53;;;18.40;99.60;;;;;;5056437;28;20447;-69
2022/05/21 07:57:22;;;;;;;9.80;8.37;;;18.40;98.50;;;;;;5054972;28;20798;-68
2022/05/21 07:59:47;;;;;;;8.40;7.13;;;18.50;98.90;;;;;;5052727;28;20976;-69
2022/05/21 08:02:17;;;;;;;9.40;8.50;;;18.50;98.10;;;;;;5054888;28;20419;-68
2022/05/21 08:04:44;;;;;;;11.47;7.27;;;18.50;98.00;;;;;;5056554;28;20169;-69
2022/05/21 08:07:10;;;;;;;10.10;9.33;;;18.40;97.80;;;;;;5074394;28;20406;-69
2022/05/21 08:09:36;;;;;;;10.87;9.50;;;18.60;97.80;;;;;;5053945;28;20534;-69
2022/05/21 08:12:03;;;;;;;11.30;6.83;;;18.70;99.50;;;;;;5054653;28;20412;-69
2022/05/21 08:14:29;;;;;;;10.30;9.43;;;18.70;98.70;;;;;;5054297;28;20408;-69
2022/05/21 08:16:55;;;;;;;9.73;9.03;;;18.70;97.10;;;;;;5054666;28;20421;-68
2022/05/21 08:19:21;;;;;;;8.77;7.17;;;18.70;97.90;;;;;;5054664;28;20178;-69
2022/05/21 08:21:47;;;;;;;13.47;8.10;;;18.50;97.20;;;;;;5053993;28;20221;-68
2022/05/21 08:27:02;;;;;;;8.23;7.43;;;18.40;97.70;;;;;;5046079;28;20424;-69
2022/05/21 08:29:32;;;;;;;8.20;6.83;;;18.40;98.20;;;;;;5053931;28;20963;-69
2022/05/21 08:31:58;;;;;;;8.73;7.83;;;18.40;97.60;;;;;;5036351;28;20793;-69
2022/05/21 08:34:25;;;;;;;11.60;7.30;;;18.50;97.80;;;;;;5054324;28;20411;-69
2022/05/21 08:36:51;;;;;;;7.93;7.30;;;18.50;97.30;;;;;;5035687;28;20481;-69
2022/05/21 08:39:18;;;;;;;9.20;7.57;;;18.50;97.40;;;;;;5054225;28;20404;-69
2022/05/21 08:42:13;;;;;;;9.27;6.10;;;18.30;97.80;;;;;;5052801;28;20416;-69
2022/05/21 08:44:47;;;;;;;10.20;6.23;;;18.40;99.10;;;;;;5055350;28;20452;-69
2022/05/21 08:47:29;;;;;;;9.90;8.10;;;18.50;98.30;;;;;;5052543;28;20467;-69
2022/05/21 08:50:09;;;;;;;9.43;6.50;;;18.50;97.30;;;;;;5053183;28;20931;-69
2022/05/21 08:53:03;;;;;;;10.00;7.33;;;18.40;97.60;;;;;;5052937;28;20463;-70
2022/05/21 08:55:37;;;;;;;9.77;7.00;;;18.30;98.30;;;;;;5055884;28;20436;-70
2022/05/21 08:58:29;;;;;;;7.70;6.90;;;18.30;98.50;;;;;;5062704;28;20412;-69
2022/05/21 09:00:55;;;;;;;7.53;6.80;;;18.30;99.30;;;;;;5012416;28;20421;-69
2022/05/21 09:03:26;;;;;;;10.93;7.07;;;18.40;98.60;;;;;;5062108;28;20836;-70
2022/05/21 09:06:18;;;;;;;8.57;7.17;;;18.40;99.20;;;;;;5032779;28;20413;-69
2022/05/21 09:08:58;;;;;;;8.77;7.97;;;18.50;98.60;;;;;;5053975;28;20451;-69
2022/05/21 09:11:39;;;;;;;7.43;6.63;;;18.70;98.40;;;;;;5073550;28;20407;-69
2022/05/21 09:14:34;;;;;;;7.40;6.70;;;18.80;98.50;;;;;;5064689;28;20408;-69
2022/05/21 09:17:01;;;;;;;7.57;6.90;;;18.80;97.40;;;;;;5053077;28;20424;-69
2022/05/21 09:19:55;;;;;;;8.27;7.20;;;18.90;97.80;;;;;;5052676;28;20416;-69
2022/05/21 09:22:21;;;;;;;8.60;7.20;;;18.90;97.40;;;;;;5070465;28;20443;-69
2022/05/21 09:24:58;;;;;;;7.30;6.57;;;18.80;97.80;;;;;;5072044;28;20430;-69
2022/05/21 09:27:36;;;;;;;8.80;7.43;;;18.90;97.30;;;;;;5072977;28;20387;-69
2022/05/21 09:30:40;;;;;;;10.47;7.27;;;18.90;98.40;;;;;;5072846;28;20520;-69
2022/05/21 09:33:35;;;;;;;9.93;7.40;;;19.00;98.30;;;;;;5053442;28;20442;-69
2022/05/21 09:36:01;;;;;;;8.93;6.83;;;19.00;97.70;;;;;;5052894;28;20408;-69
2022/05/21 09:38:30;;;;;;;8.40;7.60;;;19.00;96.70;;;;;;5052671;28;20491;-69
2022/05/21 09:41:27;;;;;;;12.20;7.77;;;18.80;97.40;;;;;;5050698;28;21203;-69
2022/05/21 09:47:15;;;;;;;8.73;7.50;;;18.80;97.00;;;;;;5050282;28;20774;-69
2022/05/21 09:49:42;;;;;;;9.40;7.67;;;18.90;98.20;;;;;;5051676;28;20463;-69
2022/05/21 09:52:21;;;;;;;9.80;7.70;;;18.90;97.20;;;;;;5050907;28;20440;-69
2022/05/21 09:54:47;;;;;;;8.90;7.57;;;18.90;97.10;;;;;;5050184;28;20531;-69
2022/05/21 09:57:28;;;;;;;8.70;7.10;;;18.90;97.70;;;;;;5052270;28;20442;-71
2022/05/21 10:00:25;;;;;;;10.37;7.57;;;18.90;97.50;;;;;;5050456;28;20515;-69
2022/05/21 10:02:54;;;;;;;11.33;7.80;;;18.90;97.60;;;;;;5046629;28;20432;-69
2022/05/21 10:05:26;;;;;;;7.77;6.97;;;19.00;98.00;;;;;;5052117;28;20519;-69
2022/05/21 10:11:06;;;;;;;11.50;7.40;;;19.00;97.80;;;;;;5051335;28;20447;-69
2022/05/21 10:13:39;;;;;;;11.23;7.70;;;19.10;98.80;;;;;;5051198;28;20789;-69
2022/05/21 10:16:25;;;;;;;8.33;7.43;;;19.30;99.50;;;;;;5040919;28;20942;-69
2022/05/21 10:19:31;;;;;;;7.80;7.00;;;19.50;98.90;;;;;;5053338;28;20480;-69
2022/05/21 10:22:08;;;;;;;10.23;6.87;;;19.70;98.60;;;;;;5033203;28;20490;-69
2022/05/21 10:24:40;;;;;;;10.40;6.90;;;19.80;97.80;;;;;;5052767;28;20439;-69
2022/05/21 10:27:20;;;;;;;8.27;7.17;;;19.90;97.90;;;;;;5055125;28;20467;-70
2022/05/21 10:29:58;;;;;;;8.70;7.10;;;20.00;95.90;;;;;;5031565;28;20536;-69
2022/05/21 10:32:42;;;;;;;9.70;7.13;;;20.00;95.40;;;;;;5047252;28;20464;-69
2022/05/21 10:35:33;;;;;;;7.97;6.73;;;20.10;95.80;;;;;;5052809;28;20436;-69
2022/05/21 10:38:24;;;;;;;8.53;6.37;;;20.40;96.50;;;;;;5054897;28;20432;-69
2022/05/21 10:40:58;;;;;;;7.10;6.40;;;20.60;95.00;;;;;;5050917;28;20444;-70
2022/05/21 10:43:47;;;;;;;8.67;6.23;;;20.80;95.80;;;;;;5051514;28;20769;-69
2022/05/21 10:46:37;;;;;;;11.93;6.90;;;21.00;94.50;;;;;;5051173;28;20432;-69
2022/05/21 10:49:34;;;;;;;55.03;44.47;;;21.20;93.30;;;;;;5055357;28;20943;-69
2022/05/21 10:52:25;;;;;;;224.87;182.60;;;21.30;92.80;;;;;;5048335;28;20527;-69
2022/05/21 10:55:35;;;;;;;22.30;19.60;;;21.40;92.00;;;;;;5050068;28;20435;-69
2022/05/21 10:58:24;;;;;;;12.70;8.30;;;21.40;92.60;;;;;;5049220;28;20475;-68
2022/05/21 11:01:14;;;;;;;13.70;10.77;;;21.40;92.70;;;;;;5030520;28;20441;-69
2022/05/21 11:03:49;;;;;;;10.37;9.13;;;21.20;91.90;;;;;;5043416;28;20424;-70
2022/05/21 11:06:36;;;;;;;11.23;9.40;;;21.20;92.40;;;;;;5056386;28;20490;-69
2022/05/21 11:09:30;;;;;;;11.37;9.00;;;21.20;91.80;;;;;;5055672;28;20436;-69
2022/05/21 11:12:02;;;;;;;10.27;9.37;;;21.40;92.70;;;;;;5054600;28;20404;-70
2022/05/21 11:14:45;;;;;;;9.00;8.20;;;21.60;92.80;;;;;;5057636;28;20772;-71
2022/05/21 11:17:42;;;;;;;8.87;8.17;;;21.80;92.20;;;;;;5058703;28;20859;-69
2022/05/21 11:20:39;;;;;;;9.30;8.60;;;22.00;93.70;;;;;;5057187;28;20461;-70
2022/05/21 11:23:06;;;;;;;9.97;8.23;;;22.20;91.00;;;;;;5048407;28;20431;-70
2022/05/21 11:25:52;;;;;;;8.87;8.07;;;22.30;90.70;;;;;;5056370;28;20436;-70
2022/05/21 11:28:27;;;;;;;8.37;7.57;;;22.30;90.40;;;;;;5057660;28;20764;-69
2022/05/21 11:37:20;;;;;;;8.50;7.63;;;22.20;86.60;;;;;;5058137;28;20522;-70
2022/05/21 11:39:41;;;;;;;7.83;7.07;;;21.70;89.80;;;;;;5054595;28;20810;-73
2022/05/21 11:42:06;;;;;;;7.23;6.53;;;21.70;90.50;;;;;;5054349;28;20428;-70
2022/05/21 11:44:59;;;;;;;7.17;6.37;;;21.70;90.50;;;;;;5055566;28;20177;-69
2022/05/21 11:47:25;;;;;;;7.73;6.37;;;21.70;86.80;;;;;;5055248;28;20170;-70
2022/05/21 11:50:00;;;;;;;6.97;6.27;;;21.50;88.20;;;;;;5053141;28;20499;-69
2022/05/21 11:52:31;;;;;;;8.27;7.47;;;21.40;87.20;;;;;;5058999;28;20227;-69
2022/05/21 11:54:57;;;;;;;8.63;7.37;;;21.40;87.90;;;;;;5055707;28;20451;-69
2022/05/21 11:57:36;;;;;;;8.73;7.93;;;21.30;88.10;;;;;;5054296;28;20440;-70
2022/05/21 12:00:07;;;;;;;8.00;7.37;;;21.00;86.60;;;;;;5057287;28;20603;-69
2022/05/21 12:02:35;;;;;;;7.80;7.10;;;20.90;89.20;;;;;;5057672;28;20436;-69
2022/05/21 12:05:08;;;;;;;9.83;6.90;;;20.90;90.50;;;;;;5064993;28;20443;-70
2022/05/21 12:07:40;;;;;;;7.27;6.47;;;20.80;89.60;;;;;;5050193;28;20785;-69
2022/05/21 12:10:11;;;;;;;9.27;6.60;;;20.80;93.40;;;;;;5047964;28;20529;-69
2022/05/21 12:13:15;;;;;;;7.60;6.77;;;20.70;89.90;;;;;;5059198;28;20431;-69
2022/05/21 12:15:49;;;;;;;9.20;6.20;;;20.70;91.20;;;;;;5053877;28;20428;-69
2022/05/21 12:18:44;;;;;;;7.03;6.33;;;20.60;90.20;;;;;;5057563;28;20432;-69
2022/05/21 12:21:30;;;;;;;9.70;6.50;;;20.60;90.00;;;;;;5054579;28;20555;-69
2022/05/21 12:23:55;;;;;;;6.97;6.37;;;20.50;91.10;;;;;;5048530;28;20503;-69
2022/05/21 12:26:23;;;;;;;6.80;6.10;;;20.50;90.70;;;;;;5054984;28;20527;-69
2022/05/21 12:29:11;;;;;;;5.57;5.17;;;20.60;90.90;;;;;;5056968;28;20257;-69
2022/05/21 12:31:43;;;;;;;6.47;5.70;;;20.70;91.90;;;;;;5054539;28;20432;-68
2022/05/21 12:34:27;;;;;;;10.60;5.50;;;20.70;90.50;;;;;;5056503;28;20922;-69
2022/05/21 12:37:26;;;;;;;6.03;5.53;;;20.60;90.40;;;;;;5060029;28;20432;-69
2022/05/21 12:40:10;;;;;;;7.40;5.20;;;20.50;88.90;;;;;;5047442;28;20441;-67
2022/05/21 12:43:11;;;;;;;6.83;6.17;;;20.40;89.20;;;;;;5052245;28;20547;-67
2022/05/21 12:45:50;;;;;;;7.33;6.00;;;20.30;89.80;;;;;;5053343;28;20984;-67
2022/05/21 12:48:23;;;;;;;7.23;6.30;;;20.40;90.50;;;;;;5054743;28;20458;-67
2022/05/21 12:50:56;;;;;;;8.13;6.30;;;20.50;90.40;;;;;;5055607;28;20472;-68
2022/05/21 12:53:28;;;;;;;6.50;6.00;;;20.60;90.50;;;;;;5051224;28;20521;-67
2022/05/21 12:55:59;;;;;;;6.80;6.17;;;20.60;88.30;;;;;;5051747;28;20747;-67
2022/05/21 12:58:31;;;;;;;7.73;6.43;;;20.60;88.70;;;;;;5053501;28;20491;-67
2022/05/21 13:00:59;;;;;;;7.07;6.40;;;20.60;90.00;;;;;;5052038;28;20940;-67
2022/05/21 13:03:31;;;;;;;8.23;6.27;;;20.50;90.00;;;;;;5053848;28;20470;-67
2022/05/21 13:06:09;;;;;;;6.40;5.90;;;20.70;91.50;;;;;;5053202;28;20457;-68
2022/05/21 13:08:40;;;;;;;7.63;6.63;;;20.80;90.30;;;;;;5053525;28;20391;-67
2022/05/21 13:11:19;;;;;;;6.53;5.90;;;20.90;91.00;;;;;;5052943;28;20455;-68
2022/05/21 13:13:59;;;;;;;94.93;69.13;;;20.90;86.30;;;;;;5051651;28;20414;-67
2022/05/21 13:16:26;;;;;;;51.40;42.83;;;20.80;85.60;;;;;;5050086;28;20400;-67
2022/05/21 13:19:28;;;;;;;56.23;50.47;;;20.80;86.10;;;;;;5052733;28;20420;-67
2022/05/21 13:22:12;;;;;;;8.83;7.93;;;20.70;85.50;;;;;;5018868;28;20551;-67
2022/05/21 13:25:01;;;;;;;8.30;6.87;;;20.60;85.90;;;;;;5053710;28;20419;-67
2022/05/21 13:27:27;;;;;;;7.37;6.73;;;20.70;87.20;;;;;;5052612;28;20408;-67
2022/05/21 13:29:54;;;;;;;7.53;6.87;;;20.80;88.60;;;;;;5052604;28;20547;-68
2022/05/21 13:32:25;;;;;;;7.17;6.40;;;20.60;86.80;;;;;;5052102;28;20419;-69